createdAt,value
2022-11-12T00:01:59.576Z,4.04
2022-11-12T00:06:02.832Z,4.04
2022-11-12T00:08:04.606Z,4.04
2022-11-12T00:10:06.158Z,4.04
2022-11-12T00:12:07.233Z,4.04
2022-11-12T00:14:09.175Z,4.04
2022-11-12T00:16:10.367Z,4.04
2022-11-12T00:18:11.567Z,4.04
2022-11-12T00:22:14.934Z,4.04
2022-11-12T00:24:16.387Z,4.04
2022-11-12T00:26:17.659Z,4.04
2022-11-12T00:28:19.601Z,4.04
2022-11-12T00:30:20.748Z,4.04
2022-11-12T00:32:22.343Z,4.04
2022-11-12T00:34:24.259Z,4.04
2022-11-12T00:38:27.291Z,4.04
2022-11-12T00:40:28.450Z,4.04
2022-11-12T00:42:29.573Z,4.04
2022-11-12T00:44:30.857Z,4.04
2022-11-12T00:48:33.925Z,4.04
2022-11-12T00:50:35.479Z,4.04
2022-11-12T00:54:38.586Z,4.04
2022-11-12T00:56:40.292Z,4.04
2022-11-12T00:58:41.605Z,4.04
2022-11-12T01:00:43.580Z,4.03
2022-11-12T01:04:46.845Z,4.04
2022-11-12T01:06:48.820Z,4.03
2022-11-12T01:08:50.104Z,4.04
2022-11-12T01:10:51.197Z,4.03
2022-11-12T01:12:53.104Z,4.03
2022-11-12T01:14:54.728Z,4.04
2022-11-12T01:16:55.857Z,4.04
2022-11-12T01:20:58.702Z,4.04
2022-11-12T01:22:59.801Z,4.03
2022-11-12T01:25:01.358Z,4.03
2022-11-12T01:27:03.238Z,4.03
2022-11-12T01:31:06.285Z,4.03
2022-11-12T01:33:08.023Z,4.03
2022-11-12T01:37:11.441Z,4.03
2022-11-12T01:39:12.855Z,4.03
2022-11-12T01:41:14.570Z,4.03
2022-11-12T01:43:16.150Z,4.03
2022-11-12T01:47:18.426Z,4.03
2022-11-12T01:49:20.123Z,4.03
2022-11-12T01:51:21.881Z,4.03
2022-11-12T01:53:23.850Z,4.03
2022-11-12T01:55:24.879Z,4.03
2022-11-12T01:57:27.628Z,4.03
2022-11-12T01:59:27.114Z,4.03
2022-11-12T02:03:30.073Z,4.03
2022-11-12T02:05:31.973Z,4.03
2022-11-12T02:07:33.511Z,4.02
2022-11-12T02:09:34.532Z,4.03
2022-11-12T02:13:38.355Z,4.03
2022-11-12T02:15:39.398Z,4.02
2022-11-12T02:17:41.028Z,4.02
2022-11-12T02:19:43.007Z,4.02
2022-11-12T02:21:44.843Z,4.03
2022-11-12T02:23:46.326Z,4.02
2022-11-12T02:25:47.604Z,4.02
2022-11-12T02:29:51.304Z,4.02
2022-11-12T02:31:52.697Z,4.02
2022-11-12T02:35:55.543Z,4.02
2022-11-12T02:37:56.725Z,4.02
2022-11-12T02:39:58.139Z,4.02
2022-11-12T02:41:59.511Z,4.02
2022-11-12T02:46:03.140Z,4.02
2022-11-12T02:48:05.024Z,4.02
2022-11-12T02:50:06.629Z,4.02
2022-11-12T02:52:08.556Z,4.02
2022-11-12T02:56:10.823Z,4.02
2022-11-12T02:58:12.152Z,4.02
2022-11-12T03:00:13.563Z,4.02
2022-11-12T03:02:59.301Z,4.02
2022-11-12T03:07:02.004Z,4.02
2022-11-12T03:09:03.364Z,4.02
2022-11-12T03:11:04.409Z,4.01
2022-11-12T03:13:05.502Z,4.02
2022-11-12T03:15:07.145Z,4.02
2022-11-12T03:17:08.866Z,4.02
2022-11-12T03:19:10.741Z,4.02
2022-11-12T03:23:13.432Z,4.02
2022-11-12T03:25:14.749Z,4.01
2022-11-12T03:27:16.581Z,4.01
2022-11-12T03:29:17.779Z,4.02
2022-11-12T03:31:18.788Z,4.01
2022-11-12T03:33:20.698Z,4.01
2022-11-12T03:35:22.684Z,4.01
2022-11-12T03:39:26.498Z,4.01
2022-11-12T03:41:28.323Z,4.01
2022-11-12T03:43:30.267Z,4.01
2022-11-12T03:45:31.954Z,4.01
2022-11-12T03:47:34.142Z,4.01
2022-11-12T03:49:34.942Z,4.01
2022-11-12T03:51:36.541Z,4.01
2022-11-12T03:53:38.143Z,4.01
2022-11-12T03:55:39.236Z,4.01
2022-11-12T03:59:42.638Z,4.01
2022-11-12T04:01:43.912Z,4.01
2022-11-12T04:05:46.965Z,4.01
2022-11-12T04:07:48.542Z,4.01
2022-11-12T04:09:50.552Z,4.01
2022-11-12T04:11:52.448Z,4.01
2022-11-12T04:13:54.207Z,4.01
2022-11-12T04:15:55.244Z,4.01
2022-11-12T04:17:57.106Z,4
2022-11-12T04:22:00.017Z,4.01
2022-11-12T04:24:01.354Z,4
2022-11-12T04:26:02.476Z,4
2022-11-12T04:28:04.478Z,4
2022-11-12T04:32:08.194Z,4
2022-11-12T04:34:09.325Z,4
2022-11-12T04:36:10.885Z,4
2022-11-12T04:38:12.535Z,4
2022-11-12T04:40:14.219Z,4
2022-11-12T04:42:16.247Z,4
2022-11-12T04:46:18.771Z,4
2022-11-12T04:48:20.754Z,4
2022-11-12T04:50:21.994Z,4
2022-11-12T04:52:23.119Z,4
2022-11-12T04:54:25.114Z,4
2022-11-12T04:56:26.386Z,4
2022-11-12T04:58:27.707Z,4
2022-11-12T05:00:29.368Z,4
2022-11-12T05:04:31.935Z,4
2022-11-12T05:06:33.352Z,4
2022-11-12T05:08:34.447Z,4
2022-11-12T05:10:35.578Z,4
2022-11-12T05:14:38.131Z,4
2022-11-12T05:16:39.978Z,4
2022-11-12T05:20:43.682Z,4
2022-11-12T05:22:50.622Z,4
2022-11-12T05:26:49.037Z,4
2022-11-12T05:30:51.650Z,4
2022-11-12T05:32:53.373Z,3.99
2022-11-12T05:34:54.617Z,4
2022-11-12T05:36:55.667Z,3.99
2022-11-12T05:38:57.095Z,3.99
2022-11-12T05:40:58.735Z,3.99
2022-11-12T05:43:00.311Z,3.99
2022-11-12T05:47:03.536Z,3.99
2022-11-12T05:49:05.337Z,3.99
2022-11-12T05:51:12.819Z,3.99
2022-11-12T05:53:08.763Z,3.99
2022-11-12T05:57:11.544Z,3.99
2022-11-12T05:59:13.172Z,3.99
2022-11-12T06:03:15.976Z,3.99
2022-11-12T06:05:17.260Z,3.99
2022-11-12T06:07:19.108Z,3.99
2022-11-12T06:09:20.321Z,3.99
2022-11-12T06:13:23.875Z,3.99
2022-11-12T06:15:25.744Z,3.99
2022-11-12T06:17:26.833Z,3.99
2022-11-12T06:19:28.486Z,3.99
2022-11-12T06:21:30.212Z,3.98
2022-11-12T06:23:31.620Z,3.98
2022-11-12T06:25:32.902Z,3.98
2022-11-12T06:29:35.433Z,3.98
2022-11-12T06:31:37.006Z,3.98
2022-11-12T06:35:43.046Z,3.98
2022-11-12T06:39:43.887Z,3.99
2022-11-12T06:41:45.349Z,3.98
2022-11-12T06:45:48.242Z,3.98
2022-11-12T06:47:49.909Z,3.98
2022-11-12T06:49:51.106Z,3.98
2022-11-12T06:51:52.814Z,3.98
2022-11-12T06:55:55.919Z,3.98
2022-11-12T06:57:57.537Z,3.98
2022-11-12T06:59:59.499Z,3.98
2022-11-12T07:02:00.555Z,3.98
2022-11-12T07:04:01.939Z,3.98
2022-11-12T07:06:03.494Z,3.98
2022-11-12T07:08:05.215Z,3.98
2022-11-12T07:12:08.638Z,3.98
2022-11-12T07:14:10.315Z,3.98
2022-11-12T07:16:11.498Z,3.98
2022-11-12T07:18:13.398Z,3.98
2022-11-12T07:22:17.003Z,3.98
2022-11-12T07:24:18.178Z,3.98
2022-11-12T07:28:21.220Z,3.98
2022-11-12T07:30:22.926Z,3.98
2022-11-12T07:32:24.205Z,3.98
2022-11-12T07:34:26.011Z,3.98
2022-11-12T07:38:29.362Z,3.98
2022-11-12T07:40:30.853Z,3.98
2022-11-12T07:42:32.664Z,3.98
2022-11-12T07:44:34.514Z,3.98
2022-11-12T07:46:35.819Z,3.98
2022-11-12T07:50:39.224Z,3.98
2022-11-12T07:54:42.131Z,3.98
2022-11-12T07:56:43.549Z,3.98
2022-11-12T07:58:44.832Z,3.98
2022-11-12T08:00:46.735Z,3.98
2022-11-12T08:04:49.524Z,3.98
2022-11-12T08:06:51.426Z,3.98
2022-11-12T08:08:52.761Z,3.98
2022-11-12T08:10:54.675Z,3.98
2022-11-12T08:12:56.188Z,3.98
2022-11-12T08:14:57.822Z,3.98
2022-11-12T08:16:59.315Z,3.98
2022-11-12T08:21:02.177Z,3.98
2022-11-12T08:23:03.312Z,3.98
2022-11-12T08:27:06.517Z,3.98
2022-11-12T08:29:08.771Z,3.98
2022-11-12T08:31:09.232Z,3.98
2022-11-12T08:33:10.704Z,3.98
2022-11-12T08:37:13.972Z,3.98
2022-11-12T08:39:15.393Z,3.99
2022-11-12T08:41:16.990Z,3.99
2022-11-12T08:43:18.273Z,3.99
2022-11-12T08:47:21.511Z,3.99
2022-11-12T08:49:22.473Z,3.99
2022-11-12T08:51:24.184Z,3.99
2022-11-12T08:53:25.967Z,4
2022-11-12T08:55:27.418Z,4
2022-11-12T08:57:29.169Z,4
2022-11-12T08:59:31.108Z,4
2022-11-12T09:03:34.543Z,4.01
2022-11-12T09:05:36.411Z,4.01
2022-11-12T09:09:39.424Z,4.01
2022-11-12T09:11:41.220Z,4.01
2022-11-12T09:13:42.759Z,4.01
2022-11-12T09:15:44.536Z,4.01
2022-11-12T09:19:47.521Z,4.02
2022-11-12T09:21:48.563Z,4.02
2022-11-12T09:23:49.872Z,4.02
2022-11-12T09:25:51.534Z,4.02
2022-11-12T09:29:54.619Z,4.02
2022-11-12T09:31:55.925Z,4.02
2022-11-12T09:33:56.945Z,4.02
2022-11-12T09:35:58.673Z,4.02
2022-11-12T09:37:59.980Z,4.02
2022-11-12T09:40:01.583Z,4.03
2022-11-12T09:42:02.941Z,4.03
2022-11-12T09:46:26.514Z,4.03
2022-11-12T09:46:50.176Z,4.03
2022-11-12T09:48:51.336Z,4.03
2022-11-12T09:50:52.708Z,4.04
2022-11-12T09:52:54.060Z,4.04
2022-11-12T09:56:57.669Z,4.05
2022-11-12T09:58:59.287Z,4.05
2022-11-12T10:01:00.787Z,4.05
2022-11-12T10:03:01.834Z,4.05
2022-11-12T10:05:03.449Z,4.06
2022-11-12T10:07:04.750Z,4.06
2022-11-12T10:09:06.071Z,4.06
2022-11-12T10:13:09.223Z,4.06
2022-11-12T10:15:10.905Z,4.06
2022-11-12T10:17:12.061Z,4.07
2022-11-12T10:19:13.566Z,4.07
2022-11-12T10:23:16.471Z,4.08
2022-11-12T10:25:18.267Z,4.08
2022-11-12T10:27:20.173Z,4.08
2022-11-12T10:29:21.525Z,4.08
2022-11-12T10:31:23.121Z,4.08
2022-11-12T10:33:24.535Z,4.08
2022-11-12T10:35:26.277Z,4.08
2022-11-12T10:39:28.767Z,4.09
2022-11-12T10:41:30.117Z,4.1
2022-11-12T10:43:31.545Z,4.1
2022-11-12T10:45:32.930Z,4.1
2022-11-12T10:47:34.693Z,4.1
2022-11-12T10:49:36.275Z,4.11
2022-11-12T10:51:38.037Z,4.11
2022-11-12T10:55:41.374Z,4.12
2022-11-12T10:57:43.104Z,4.12
2022-11-12T10:59:44.622Z,4.13
2022-11-12T11:01:46.274Z,4.13
2022-11-12T11:05:49.252Z,4.14
2022-11-12T11:07:50.511Z,4.14
2022-11-12T11:09:52.022Z,4.14
2022-11-12T11:11:52.990Z,4.14
2022-11-12T11:13:55.854Z,4.15
2022-11-12T11:15:56.346Z,4.15
2022-11-12T11:17:57.444Z,4.15
2022-11-12T11:21:59.923Z,4.16
2022-11-12T11:24:00.898Z,4.16
2022-11-12T11:26:02.557Z,4.16
2022-11-12T11:28:04.334Z,4.16
2022-11-12T11:30:05.757Z,4.16
2022-11-12T11:32:07.419Z,4.16
2022-11-12T11:34:08.593Z,4.17
2022-11-12T11:38:10.667Z,4.17
2022-11-12T11:40:11.866Z,4.17
2022-11-12T11:42:13.386Z,4.17
2022-11-12T11:44:14.373Z,4.17
2022-11-12T11:48:17.183Z,4.17
2022-11-12T11:50:18.478Z,4.17
2022-11-12T11:52:19.943Z,4.17
2022-11-12T11:54:21.709Z,4.18
2022-11-12T11:56:23.525Z,4.18
2022-11-12T11:58:24.644Z,4.18
2022-11-12T12:00:25.597Z,4.18
2022-11-12T12:04:28.521Z,4.18
2022-11-12T12:06:30.193Z,4.18
2022-11-12T12:10:53.619Z,4.19
2022-11-12T12:12:34.623Z,4.19
2022-11-12T12:14:35.676Z,4.19
2022-11-12T12:16:37.405Z,4.19
2022-11-12T12:20:40.312Z,4.19
2022-11-12T12:22:41.362Z,4.19
2022-11-12T12:24:42.399Z,4.19
2022-11-12T12:26:43.414Z,4.19
2022-11-12T12:28:44.470Z,4.19
2022-11-12T12:30:45.535Z,4.19
2022-11-12T12:32:47.359Z,4.19
2022-11-12T12:36:49.743Z,4.19
2022-11-12T12:38:50.611Z,4.19
2022-11-12T12:40:52.360Z,4.19
2022-11-12T12:42:53.547Z,4.19
2022-11-12T12:46:55.660Z,4.19
2022-11-12T12:48:56.580Z,4.19
2022-11-12T12:50:58.412Z,4.2
2022-11-12T12:52:59.991Z,4.19
2022-11-12T12:55:01.780Z,4.2
2022-11-12T12:57:02.896Z,4.19
2022-11-12T12:59:04.363Z,4.2
2022-11-12T13:03:07.533Z,4.2
2022-11-12T13:05:08.737Z,4.2
2022-11-12T13:07:11.059Z,4.19
2022-11-12T13:09:11.423Z,4.18
2022-11-12T13:11:12.612Z,4.18
2022-11-12T13:13:13.803Z,4.18
2022-11-12T13:15:15.764Z,4.18
2022-11-12T13:19:18.979Z,4.18
2022-11-12T13:21:20.188Z,4.18
2022-11-12T13:23:21.258Z,4.18
2022-11-12T13:25:22.978Z,4.18
2022-11-12T13:29:25.503Z,4.18
2022-11-12T13:31:26.637Z,4.18
2022-11-12T13:33:27.574Z,4.17
2022-11-12T13:35:29.366Z,4.17
2022-11-12T13:37:30.296Z,4.18
2022-11-12T13:39:31.969Z,4.18
2022-11-12T13:41:33.344Z,4.17
2022-11-12T13:45:35.842Z,4.17
2022-11-12T13:47:37.432Z,4.18
2022-11-12T13:51:40.429Z,4.18
2022-11-12T13:53:41.333Z,4.18
2022-11-12T13:55:42.795Z,4.17
2022-11-12T13:57:44.455Z,4.17
2022-11-12T14:01:47.921Z,4.17
2022-11-12T14:03:49.277Z,4.17
2022-11-12T14:05:50.315Z,4.17
2022-11-12T14:07:51.277Z,4.17
2022-11-12T14:11:54.441Z,4.17
2022-11-12T14:13:55.971Z,4.17
2022-11-12T14:15:57.074Z,4.17
2022-11-12T14:17:58.964Z,4.16
2022-11-12T14:20:00.745Z,4.17
2022-11-12T14:22:02.148Z,4.17
2022-11-12T14:24:03.530Z,4.17
2022-11-12T14:28:06.453Z,4.17
2022-11-12T14:30:08.301Z,4.16
2022-11-12T14:34:11.619Z,4.16
2022-11-12T14:36:13.340Z,4.17
2022-11-12T14:38:14.514Z,4.16
2022-11-12T14:40:16.147Z,4.16
2022-11-12T14:44:19.173Z,4.16
2022-11-12T14:46:20.857Z,4.16
2022-11-12T14:48:22.387Z,4.16
2022-11-12T14:50:24.307Z,4.16
2022-11-12T14:54:27.002Z,4.16
2022-11-12T14:56:32.725Z,4.16
2022-11-12T15:00:30.868Z,4.16
2022-11-12T15:02:42.604Z,4.16
2022-11-12T15:04:33.451Z,4.16
2022-11-12T15:06:34.769Z,4.16
2022-11-12T15:10:37.766Z,4.16
2022-11-12T15:12:38.751Z,4.16
2022-11-12T15:14:40.660Z,4.16
2022-11-12T15:16:42.357Z,4.16
2022-11-12T15:18:43.954Z,4.16
2022-11-12T15:20:45.218Z,4.16
2022-11-12T15:22:46.784Z,4.16
2022-11-12T15:26:49.667Z,4.16
2022-11-12T15:28:50.880Z,4.16
2022-11-12T15:30:52.212Z,4.16
2022-11-12T15:32:54.043Z,4.16
2022-11-12T15:34:55.533Z,4.15
2022-11-12T15:36:57.244Z,4.16
2022-11-12T15:38:59.086Z,4.16
2022-11-12T15:43:02.632Z,4.15
2022-11-12T15:45:04.138Z,4.15
2022-11-12T15:47:05.811Z,4.15
2022-11-12T15:49:07.617Z,4.15
2022-11-12T15:53:10.873Z,4.15
2022-11-12T15:55:12.693Z,4.15
2022-11-12T15:57:13.686Z,4.15
2022-11-12T15:59:23.426Z,4.15
2022-11-12T16:01:17.234Z,4.15
2022-11-12T16:03:18.514Z,4.15
2022-11-12T16:05:19.743Z,4.15
2022-11-12T16:07:20.818Z,4.15
2022-11-12T16:09:22.649Z,4.15
2022-11-12T16:11:23.950Z,4.15
2022-11-12T16:13:25.561Z,4.15
2022-11-12T16:15:26.641Z,4.15
2022-11-12T16:17:28.205Z,4.15
2022-11-12T16:19:29.817Z,4.14
2022-11-12T16:21:31.730Z,4.14
2022-11-12T16:25:34.512Z,4.15
2022-11-12T16:27:36.212Z,4.14
2022-11-12T16:29:38.012Z,4.14
2022-11-12T16:31:39.653Z,4.14
2022-11-12T16:32:23.515Z,4.14
2022-11-12T16:34:24.756Z,4.14
2022-11-12T16:36:26.472Z,4.14
2022-11-12T16:38:27.536Z,4.14
2022-11-12T16:40:28.831Z,4.14
2022-11-12T16:42:30.550Z,4.14
2022-11-12T16:46:32.865Z,4.14
2022-11-12T16:48:34.050Z,4.14
2022-11-12T16:50:35.838Z,4.14
2022-11-12T16:52:37.249Z,4.14
2022-11-12T16:54:38.426Z,4.14
2022-11-12T16:56:40.146Z,4.14
2022-11-12T16:58:41.351Z,4.14
2022-11-12T17:02:47.212Z,4.14
2022-11-12T17:04:45.984Z,4.14
2022-11-12T17:06:47.829Z,4.14
2022-11-12T17:08:48.887Z,4.14
2022-11-12T17:12:51.559Z,4.14
2022-11-12T17:14:52.921Z,4.14
2022-11-12T17:16:53.979Z,4.13
2022-11-12T17:18:55.412Z,4.14
2022-11-12T17:20:56.512Z,4.14
2022-11-12T17:22:57.613Z,4.14
2022-11-12T17:24:58.948Z,4.14
2022-11-12T17:29:07.782Z,4.13
2022-11-12T17:31:03.914Z,4.13
2022-11-12T17:35:07.291Z,4.13
2022-11-12T17:37:08.923Z,4.13
2022-11-12T17:39:09.948Z,4.13
2022-11-12T17:41:11.200Z,4.13
2022-11-12T17:45:14.267Z,4.13
2022-11-12T17:47:15.688Z,4.13
2022-11-12T17:49:17.606Z,4.13
2022-11-12T17:51:19.251Z,4.13
2022-11-12T17:53:20.675Z,4.13
2022-11-12T17:55:22.232Z,4.13
2022-11-12T17:57:23.650Z,4.13
2022-11-12T18:01:26.612Z,4.13
2022-11-12T18:03:28.498Z,4.13
2022-11-12T18:07:31.632Z,4.13
2022-11-12T18:09:32.576Z,4.12
2022-11-12T18:11:33.627Z,4.13
2022-11-12T18:13:34.745Z,4.13
2022-11-12T18:17:37.401Z,4.12
2022-11-12T18:19:38.828Z,4.12
2022-11-12T18:21:40.175Z,4.12
2022-11-12T18:23:41.986Z,4.12
2022-11-12T18:27:44.811Z,4.12
2022-11-12T18:29:46.796Z,4.12
2022-11-12T18:33:50.215Z,4.12
2022-11-12T18:35:51.259Z,4.12
2022-11-12T18:37:52.357Z,4.12
2022-11-12T18:39:53.684Z,4.12
2022-11-12T18:43:56.416Z,4.12
2022-11-12T18:45:57.954Z,4.12
2022-11-12T18:47:59.391Z,4.12
2022-11-12T18:50:04.166Z,4.12
2022-11-12T18:52:02.227Z,4.12
2022-11-12T18:54:04.123Z,4.12
2022-11-12T18:56:05.550Z,4.12
2022-11-12T19:00:08.734Z,4.12
2022-11-12T19:02:10.254Z,4.12
2022-11-12T19:04:11.443Z,4.12
2022-11-12T19:06:12.734Z,4.12
2022-11-12T19:08:14.267Z,4.11
2022-11-12T19:10:15.339Z,4.12
2022-11-12T19:12:17.070Z,4.12
2022-11-12T19:16:19.113Z,4.12
2022-11-12T19:18:20.588Z,4.11
2022-11-12T19:20:22.055Z,4.11
2022-11-12T19:22:23.043Z,4.11
2022-11-12T19:26:26.662Z,4.11
2022-11-12T19:28:27.902Z,4.11
2022-11-12T19:32:31.029Z,4.11
2022-11-12T19:34:32.878Z,4.11
2022-11-12T19:36:34.442Z,4.11
2022-11-12T19:38:35.452Z,4.11
2022-11-12T19:42:38.319Z,4.11
2022-11-12T19:44:39.800Z,4.11
2022-11-12T19:46:41.335Z,4.11
2022-11-12T19:48:42.504Z,4.11
2022-11-12T19:50:53.747Z,4.11
2022-11-12T19:52:45.103Z,4.11
2022-11-12T19:54:46.659Z,4.11
2022-11-12T19:58:49.777Z,4.11
2022-11-12T20:00:51.712Z,4.11
2022-11-12T20:02:53.481Z,4.1
2022-11-12T20:04:55.071Z,4.11
2022-11-12T20:08:58.018Z,4.11
2022-11-12T20:10:59.936Z,4.1
2022-11-12T20:13:01.096Z,4.11
2022-11-12T20:15:02.859Z,4.11
2022-11-12T20:17:03.997Z,4.1
2022-11-12T20:19:05.106Z,4.11
2022-11-12T20:21:06.535Z,4.1
2022-11-12T20:25:09.039Z,4.1
2022-11-12T20:27:10.730Z,4.1
2022-11-12T20:31:13.432Z,4.1
2022-11-12T20:33:14.561Z,4.1
2022-11-12T20:35:21.025Z,4.1
2022-11-12T20:37:16.870Z,4.1
2022-11-12T20:41:19.869Z,4.1
2022-11-12T20:43:25.217Z,4.1
2022-11-12T20:45:22.736Z,4.1
2022-11-12T20:47:24.316Z,4.1
2022-11-12T20:51:27.897Z,4.1
2022-11-12T20:53:29.111Z,4.1
2022-11-12T20:55:31.045Z,4.1
2022-11-12T20:57:32.079Z,4.1
2022-11-12T21:01:35.676Z,4.1
2022-11-12T21:03:36.778Z,4.1
2022-11-12T21:07:39.348Z,4.1
2022-11-12T21:09:41.303Z,4.1
2022-11-12T21:11:42.416Z,4.09
2022-11-12T21:13:44.311Z,4.1
2022-11-12T21:15:45.643Z,4.1
2022-11-12T21:17:47.299Z,4.1
2022-11-12T21:19:48.498Z,4.1
2022-11-12T21:23:51.739Z,4.09
2022-11-12T21:25:53.464Z,4.09
2022-11-12T21:27:55.171Z,4.09
2022-11-12T21:29:56.874Z,4.09
2022-11-12T21:33:59.548Z,4.09
2022-11-12T21:36:00.821Z,4.09
2022-11-12T21:40:04.121Z,4.09
2022-11-12T21:42:05.419Z,4.09
2022-11-12T21:44:07.093Z,4.09
2022-11-12T21:46:08.554Z,4.09
2022-11-12T21:50:11.339Z,4.09
2022-11-12T21:52:12.812Z,4.09
2022-11-12T21:54:14.232Z,4.09
2022-11-12T21:56:15.645Z,4.09
2022-11-12T21:58:16.792Z,4.09
2022-11-12T22:00:40.740Z,4.09
2022-11-12T22:02:19.728Z,4.08
2022-11-12T22:06:22.771Z,4.08
2022-11-12T22:08:24.870Z,4.09
2022-11-12T22:10:25.985Z,4.08
2022-11-12T22:12:27.904Z,4.08
2022-11-12T22:14:29.301Z,4.09
2022-11-12T22:16:30.348Z,4.08
2022-11-12T22:18:32.171Z,4.08
2022-11-12T22:22:35.324Z,4.08
2022-11-12T22:24:37.090Z,4.08
2022-11-12T22:26:39.002Z,4.08
2022-11-12T22:28:40.310Z,4.08
2022-11-12T22:32:43.126Z,4.08
2022-11-12T22:34:48.378Z,4.08
2022-11-12T22:36:46.099Z,4.08
2022-11-12T22:38:47.319Z,4.08
2022-11-12T22:40:48.855Z,4.08
2022-11-12T22:42:50.794Z,4.08
2022-11-12T22:44:52.744Z,4.08
2022-11-12T22:48:55.444Z,4.08
2022-11-12T22:50:56.526Z,4.08
2022-11-12T22:52:58.250Z,4.08
2022-11-12T22:54:59.681Z,4.08
2022-11-12T22:57:00.866Z,4.08
2022-11-12T22:59:02.271Z,4.08
2022-11-12T23:01:03.494Z,4.08
2022-11-12T23:03:04.473Z,4.08
2022-11-12T23:07:07.174Z,4.07
2022-11-12T23:09:08.369Z,4.08
2022-11-12T23:11:09.614Z,4.08
2022-11-12T23:15:12.242Z,4.08
2022-11-12T23:17:13.689Z,4.07
2022-11-12T23:19:59.294Z,4.08
2022-11-12T23:22:04.054Z,4.07
2022-11-12T23:26:03.919Z,4.07
2022-11-12T23:28:05.421Z,4.07
2022-11-12T23:32:08.122Z,4.07
2022-11-12T23:34:09.577Z,4.07
2022-11-12T23:36:11.099Z,4.07
2022-11-12T23:38:12.746Z,4.07
2022-11-12T23:42:15.612Z,4.07
2022-11-12T23:44:16.922Z,4.07
2022-11-12T23:46:17.935Z,4.07
2022-11-12T23:48:19.649Z,4.07
2022-11-12T23:52:22.573Z,4.07
2022-11-12T23:54:23.687Z,4.07
2022-11-12T23:56:25.190Z,4.07
2022-11-12T23:58:27.142Z,4.07
